createdAt,value
2018-10-01T00:00:17.880Z,96969.93
2018-10-01T00:02:46.528Z,96968.50
2018-10-01T00:05:15.112Z,96962.26
2018-10-01T00:07:43.973Z,96965.02
2018-10-01T00:10:12.601Z,96965.59
2018-10-01T00:12:41.219Z,96967.42
2018-10-01T00:15:09.949Z,96963.83
2018-10-01T00:17:38.563Z,96961.56
2018-10-01T00:20:12.608Z,96963.50
2018-10-01T00:22:48.627Z,96970.63
2018-10-01T00:25:17.677Z,96965.92
2018-10-01T00:27:46.447Z,96968.96
2018-10-01T00:30:15.094Z,96961.98
2018-10-01T00:32:43.855Z,96964.96
2018-10-01T00:35:12.484Z,96960.84
2018-10-01T00:37:41.301Z,96951.51
2018-10-01T00:40:10.054Z,96945.41
2018-10-01T00:42:39.023Z,96947.91
2018-10-01T00:45:08.439Z,96935.16
2018-10-01T00:47:37.195Z,96930.53
2018-10-01T00:50:05.836Z,96937.72
2018-10-01T00:52:34.416Z,96946.02
2018-10-01T00:55:03.095Z,96934.28
2018-10-01T00:57:31.907Z,96931.08
2018-10-01T01:00:00.500Z,96940.84
2018-10-01T01:02:29.114Z,96931.25
2018-10-01T01:04:57.701Z,96928.36
2018-10-01T01:07:26.309Z,96933.35
2018-10-01T01:09:55.008Z,96928.91
2018-10-01T01:12:23.596Z,96929.81
2018-10-01T01:14:52.184Z,96932.64
2018-10-01T01:17:20.823Z,96937.73
2018-10-01T01:19:49.397Z,96936.02
2018-10-01T01:22:18.008Z,96931.16
2018-10-01T01:24:46.696Z,96941.02
2018-10-01T01:27:15.270Z,96934.17
2018-10-01T01:29:43.863Z,96935.53
2018-10-01T01:32:12.540Z,96939.34
2018-10-01T01:34:41.148Z,96943.28
2018-10-01T01:37:09.929Z,96944.45
2018-10-01T01:39:38.760Z,96943.45
2018-10-01T01:42:07.428Z,96940.80
2018-10-01T01:44:36.060Z,96942.90
2018-10-01T01:47:04.676Z,96943.45
2018-10-01T01:49:33.277Z,96935.25
2018-10-01T01:52:01.956Z,96931.98
2018-10-01T01:54:30.559Z,96940.35
2018-10-01T01:56:59.308Z,96939.19
2018-10-01T01:59:27.927Z,96942.56
2018-10-01T02:01:56.640Z,96943.73
2018-10-01T02:04:25.270Z,96943.00
2018-10-01T02:06:53.849Z,96938.43
2018-10-01T02:09:22.842Z,96944.19
2018-10-01T02:11:51.416Z,96939.27
2018-10-01T02:14:19.991Z,96936.98
2018-10-01T02:16:48.697Z,96938.27
2018-10-01T02:19:17.341Z,96936.54
2018-10-01T02:21:45.940Z,96929.41
2018-10-01T02:24:14.687Z,96921.95
2018-10-01T02:26:43.523Z,96931.44
2018-10-01T02:29:12.459Z,96930.62
2018-10-01T02:31:41.184Z,96925.70
2018-10-01T02:34:10.187Z,96928.69
2018-10-01T02:36:38.757Z,96923.52
2018-10-01T02:39:10.977Z,96921.16
2018-10-01T02:41:39.612Z,96926.14
2018-10-01T02:44:08.212Z,96927.52
2018-10-01T02:46:37.200Z,96929.60
2018-10-01T02:49:05.820Z,96929.31
2018-10-01T02:51:39.668Z,96928.80
2018-10-01T02:54:13.700Z,96933.97
2018-10-01T02:56:42.376Z,96942.51
2018-10-01T02:59:11.002Z,96943.52
2018-10-01T03:01:39.595Z,96938.24
2018-10-01T03:04:08.257Z,96933.70
2018-10-01T03:06:36.860Z,96929.22
2018-10-01T03:09:09.271Z,96933.50
2018-10-01T03:11:38.163Z,96929.87
2018-10-01T03:14:06.802Z,96932.69
2018-10-01T03:16:35.935Z,96929.31
2018-10-01T03:19:04.876Z,96929.42
2018-10-01T03:21:33.452Z,96923.58
2018-10-01T03:24:02.166Z,96927.67
2018-10-01T03:26:30.762Z,96926.95
2018-10-01T03:28:59.351Z,96923.38
2018-10-01T03:31:28.188Z,96918.84
2018-10-01T03:33:56.940Z,96917.11
2018-10-01T03:36:26.232Z,96916.84
2018-10-01T03:38:54.984Z,96920.56
2018-10-01T03:41:23.592Z,96928.92
2018-10-01T03:43:52.192Z,96920.36
2018-10-01T03:46:21.019Z,96927.89
2018-10-01T03:48:49.623Z,96926.55
2018-10-01T03:51:18.213Z,96930.89
2018-10-01T03:53:46.887Z,96930.34
2018-10-01T03:56:15.464Z,96934.33
2018-10-01T03:58:44.048Z,96941.25
2018-10-01T04:01:12.819Z,96949.44
2018-10-01T04:03:41.409Z,96950.78
2018-10-01T04:06:09.999Z,96954.81
2018-10-01T04:08:38.689Z,96955.16
2018-10-01T04:11:07.389Z,96961.07
2018-10-01T04:13:35.992Z,96958.52
2018-10-01T04:16:05.076Z,96959.86
2018-10-01T04:18:33.932Z,96959.14
2018-10-01T04:21:02.519Z,96959.21
2018-10-01T04:23:31.140Z,96956.77
2018-10-01T04:25:59.716Z,96955.49
2018-10-01T04:28:28.289Z,96963.68
2018-10-01T04:30:56.907Z,96964.20
2018-10-01T04:33:25.517Z,96969.39
2018-10-01T04:35:54.087Z,96965.73
2018-10-01T04:38:22.767Z,96972.17
2018-10-01T04:40:51.510Z,96976.70
2018-10-01T04:43:20.000Z,96973.61
2018-10-01T04:45:48.703Z,96980.07
2018-10-01T04:48:17.315Z,96982.62
2018-10-01T04:50:45.895Z,96979.79
2018-10-01T04:53:14.576Z,96988.90
2018-10-01T04:55:43.162Z,96994.03
2018-10-01T04:58:11.780Z,97006.09
2018-10-01T05:00:40.452Z,97005.87
2018-10-01T05:03:09.036Z,97009.85
2018-10-01T05:05:37.613Z,97014.12
2018-10-01T05:08:06.833Z,97017.41
2018-10-01T05:10:35.619Z,97020.52
2018-10-01T05:13:04.240Z,97028.44
2018-10-01T05:15:32.996Z,97029.61
2018-10-01T05:18:01.579Z,97033.47
2018-10-01T05:20:30.274Z,97037.83
2018-10-01T05:22:59.007Z,97042.38
2018-10-01T05:25:27.591Z,97041.13
2018-10-01T05:27:56.259Z,97046.51
2018-10-01T05:30:25.016Z,97052.61
2018-10-01T05:32:53.995Z,97055.53
2018-10-01T05:35:22.640Z,97058.37
2018-10-01T05:37:51.571Z,97054.30
2018-10-01T05:40:20.145Z,97059.41
2018-10-01T05:42:48.796Z,97064.21
2018-10-01T05:45:17.416Z,97064.66
2018-10-01T05:47:46.004Z,97068.95
2018-10-01T05:50:14.588Z,97064.30
2018-10-01T05:52:43.276Z,97077.48
2018-10-01T05:55:11.885Z,97078.95
2018-10-01T05:57:40.503Z,97086.23
2018-10-01T06:00:09.125Z,97085.56
2018-10-01T06:02:37.706Z,97083.27
2018-10-01T06:05:06.704Z,97085.85
2018-10-01T06:07:35.324Z,97093.34
2018-10-01T06:10:03.974Z,97092.31
2018-10-01T06:12:32.560Z,97097.16
2018-10-01T06:15:01.261Z,97105.81
2018-10-01T06:17:30.126Z,97101.06
2018-10-01T06:19:59.740Z,97113.00
2018-10-01T06:22:29.855Z,97112.70
2018-10-01T06:24:58.452Z,97110.84
2018-10-01T06:27:27.056Z,97117.34
2018-10-01T06:29:56.570Z,97127.28
2018-10-01T06:32:25.506Z,97126.84
2018-10-01T06:34:54.127Z,97130.66
2018-10-01T06:37:23.036Z,97137.02
2018-10-01T06:39:51.660Z,97140.69
2018-10-01T06:42:20.746Z,97141.67
2018-10-01T06:44:50.219Z,97143.33
2018-10-01T06:47:19.761Z,97137.11
2018-10-01T06:49:49.540Z,97139.80
2018-10-01T06:52:18.228Z,97144.20
2018-10-01T06:54:47.199Z,97150.12
2018-10-01T06:57:15.807Z,97148.47
2018-10-01T06:59:45.669Z,97146.90
2018-10-01T07:02:14.308Z,97158.78
2018-10-01T07:04:42.949Z,97160.05
2018-10-01T07:07:12.340Z,97161.02
2018-10-01T07:09:41.458Z,97166.34
2018-10-01T07:12:10.928Z,97173.24
2018-10-01T07:14:40.070Z,97171.97
2018-10-01T07:17:09.977Z,97178.01
2018-10-01T07:19:39.933Z,97183.86
2018-10-01T07:22:09.593Z,97188.56
2018-10-01T07:24:38.236Z,97189.37
2018-10-01T07:27:07.011Z,97193.14
2018-10-01T07:29:35.607Z,97189.77
2018-10-01T07:32:04.208Z,97192.37
2018-10-01T07:34:33.119Z,97197.59
2018-10-01T07:37:01.741Z,97206.45
2018-10-01T07:39:30.404Z,97212.95
2018-10-01T07:41:59.044Z,97208.61
2018-10-01T07:44:27.623Z,97209.71
2018-10-01T07:46:56.224Z,97213.77
2018-10-01T07:49:24.976Z,97207.34
2018-10-01T07:51:53.638Z,97215.64
2018-10-01T07:54:22.297Z,97220.66
2018-10-01T07:56:50.983Z,97229.03
2018-10-01T07:59:19.613Z,97228.79
2018-10-01T08:01:48.206Z,97238.17
2018-10-01T08:04:16.862Z,97234.58
2018-10-01T08:06:45.450Z,97237.19
2018-10-01T08:09:14.039Z,97251.27
2018-10-01T08:11:42.661Z,97245.44
2018-10-01T08:14:11.323Z,97248.87
2018-10-01T08:16:40.287Z,97257.87
2018-10-01T08:19:08.931Z,97256.94
2018-10-01T08:21:37.536Z,97260.46
2018-10-01T08:24:06.605Z,97262.27
2018-10-01T08:26:35.249Z,97270.35
2018-10-01T08:29:03.904Z,97270.15
2018-10-01T08:31:32.935Z,97276.56
2018-10-01T08:34:02.022Z,97281.59
2018-10-01T08:36:30.596Z,97286.69
2018-10-01T08:38:59.278Z,97288.02
2018-10-01T08:41:28.313Z,97286.75
2018-10-01T08:43:56.986Z,97289.59
2018-10-01T08:46:25.557Z,97289.39
2018-10-01T08:49:32.424Z,97288.84
2018-10-01T08:52:05.096Z,97287.45
2018-10-01T08:54:36.908Z,97295.36
2018-10-01T08:57:06.044Z,97296.39
2018-10-01T08:59:34.994Z,97302.20
2018-10-01T09:02:05.087Z,97299.50
2018-10-01T09:04:34.255Z,97304.83
2018-10-01T09:07:03.345Z,97301.30
2018-10-01T09:09:32.028Z,97303.78
2018-10-01T09:12:00.616Z,97307.56
2018-10-01T09:14:29.266Z,97306.38
2018-10-01T09:16:57.922Z,97310.64
2018-10-01T09:19:26.526Z,97312.73
2018-10-01T09:21:55.131Z,97313.62
2018-10-01T09:24:23.872Z,97317.53
2018-10-01T09:26:52.443Z,97327.30
2018-10-01T09:29:21.053Z,97324.90
2018-10-01T09:31:49.772Z,97322.63
2018-10-01T09:34:18.391Z,97322.17
2018-10-01T09:36:47.000Z,97326.61
2018-10-01T09:39:15.794Z,97333.09
2018-10-01T09:41:44.408Z,97336.27
2018-10-01T09:44:13.094Z,97333.63
2018-10-01T09:46:41.755Z,97334.05
2018-10-01T09:49:10.354Z,97335.33
2018-10-01T09:51:38.964Z,97333.09
2018-10-01T09:54:07.724Z,97337.92
2018-10-01T09:56:36.376Z,97337.32
2018-10-01T09:59:04.915Z,97345.05
2018-10-01T10:01:33.601Z,97342.73
2018-10-01T10:04:02.323Z,97340.63
2018-10-01T10:06:30.856Z,97348.20
2018-10-01T10:08:59.711Z,97346.70
2018-10-01T10:11:28.418Z,97359.06
2018-10-01T10:13:56.973Z,97363.98
2018-10-01T10:16:25.790Z,97370.35
2018-10-01T10:18:54.327Z,97369.14
2018-10-01T10:21:22.984Z,97372.95
2018-10-01T10:23:51.743Z,97374.83
2018-10-01T10:26:20.404Z,97372.66
2018-10-01T10:28:48.981Z,97374.60
2018-10-01T10:31:17.621Z,97377.67
2018-10-01T10:33:46.215Z,97379.77
2018-10-01T10:36:14.783Z,97372.73
2018-10-01T10:38:43.405Z,97379.39
2018-10-01T10:41:12.005Z,97385.26
2018-10-01T10:43:40.609Z,97382.14
2018-10-01T10:46:09.705Z,97389.13
2018-10-01T10:48:38.292Z,97394.52
2018-10-01T10:51:06.899Z,97397.03
2018-10-01T10:53:35.596Z,97390.81
2018-10-01T10:56:04.251Z,97389.53
2018-10-01T10:58:32.832Z,97389.05
2018-10-01T11:01:01.889Z,97382.71
2018-10-01T11:03:30.477Z,97389.53
2018-10-01T11:05:59.096Z,97395.50
2018-10-01T11:08:27.739Z,97398.53
2018-10-01T11:10:56.323Z,97395.43
2018-10-01T11:13:25.007Z,97391.95
2018-10-01T11:15:53.676Z,97389.80
2018-10-01T11:18:22.291Z,97394.02
2018-10-01T11:20:51.362Z,97391.31
2018-10-01T11:23:20.310Z,97394.00
2018-10-01T11:25:48.891Z,97398.64
2018-10-01T11:28:17.520Z,97394.28
2018-10-01T11:30:46.203Z,97390.93
2018-10-01T11:33:15.237Z,97397.94
2018-10-01T11:35:43.800Z,97397.06
2018-10-01T11:38:12.516Z,97382.35
2018-10-01T11:40:41.185Z,97395.13
2018-10-01T11:43:09.868Z,97392.38
2018-10-01T11:45:38.550Z,97388.00
2018-10-01T11:48:07.136Z,97389.09
2018-10-01T11:50:35.762Z,97396.48
2018-10-01T11:53:04.917Z,97388.36
2018-10-01T11:55:33.508Z,97390.92
2018-10-01T11:58:02.576Z,97393.70
2018-10-01T12:00:31.307Z,97398.62
2018-10-01T12:03:00.001Z,97402.64
2018-10-01T12:05:28.516Z,97402.53
2018-10-01T12:07:57.164Z,97407.36
2018-10-01T12:10:25.785Z,97401.77
2018-10-01T12:12:54.548Z,97408.06
2018-10-01T12:15:23.695Z,97404.05
2018-10-01T12:17:52.269Z,97401.51
2018-10-01T12:20:20.868Z,97402.30
2018-10-01T12:22:49.617Z,97404.58
2018-10-01T12:25:18.260Z,97402.79
2018-10-01T12:27:46.908Z,97407.28
2018-10-01T12:30:15.528Z,97396.24
2018-10-01T12:32:44.149Z,97396.18
2018-10-01T12:35:12.774Z,97401.32
2018-10-01T12:37:41.444Z,97397.41
2018-10-01T12:40:10.279Z,97401.37
2018-10-01T12:42:38.946Z,97402.54
2018-10-01T12:45:08.162Z,97412.77
2018-10-01T12:47:37.063Z,97398.48
2018-10-01T12:50:05.771Z,97407.78
2018-10-01T12:52:34.396Z,97411.23
2018-10-01T12:55:03.025Z,97404.67
2018-10-01T12:57:31.647Z,97405.02
2018-10-01T13:00:00.326Z,97404.42
2018-10-01T13:02:28.912Z,97398.66
2018-10-01T13:04:58.063Z,97406.68
2018-10-01T13:07:27.127Z,97402.20
2018-10-01T13:09:55.721Z,97395.54
2018-10-01T13:12:24.339Z,97407.52
2018-10-01T13:14:52.969Z,97401.99
2018-10-01T13:17:21.564Z,97405.78
2018-10-01T13:19:50.156Z,97397.11
2018-10-01T13:22:18.797Z,97399.49
2018-10-01T13:24:47.494Z,97404.77
2018-10-01T13:27:16.105Z,97399.86
2018-10-01T13:29:45.060Z,97412.86
2018-10-01T13:32:13.739Z,97425.85
2018-10-01T13:34:42.347Z,97432.60
2018-10-01T13:37:11.088Z,97441.69
2018-10-01T13:39:39.728Z,97428.80
2018-10-01T13:42:08.624Z,97439.89
2018-10-01T13:44:37.421Z,97430.59
2018-10-01T13:47:05.849Z,97431.36
2018-10-01T13:49:34.905Z,97431.06
2018-10-01T13:52:03.998Z,97431.33
2018-10-01T13:54:32.588Z,97424.19
2018-10-01T13:57:01.212Z,97421.03
2018-10-01T13:59:29.921Z,97410.77
2018-10-01T14:01:58.589Z,97409.13
2018-10-01T14:04:27.699Z,97414.12
2018-10-01T14:06:56.393Z,97407.78
2018-10-01T14:09:24.951Z,97403.69
2018-10-01T14:11:53.531Z,97404.52
2018-10-01T14:14:22.691Z,97402.42
2018-10-01T14:16:51.737Z,97393.59
2018-10-01T14:19:20.756Z,97391.88
2018-10-01T14:21:49.371Z,97397.80
2018-10-01T14:24:18.191Z,97388.69
2018-10-01T14:26:46.775Z,97392.77
2018-10-01T14:29:15.668Z,97387.89
2018-10-01T14:31:44.240Z,97387.69
2018-10-01T14:34:13.015Z,97394.20
2018-10-01T14:36:42.465Z,97397.88
2018-10-01T14:39:12.165Z,97402.91
2018-10-01T14:41:41.002Z,97400.61
2018-10-01T14:44:10.320Z,97404.48
2018-10-01T14:46:38.908Z,97406.69
2018-10-01T14:49:07.912Z,97403.69
2018-10-01T14:51:37.120Z,97403.16
2018-10-01T14:54:05.775Z,97403.89
2018-10-01T14:56:34.580Z,97399.78
2018-10-01T14:59:03.261Z,97402.27
2018-10-01T15:01:31.856Z,97407.52
2018-10-01T15:04:00.472Z,97412.61
2018-10-01T15:06:29.117Z,97409.37
2018-10-01T15:08:57.743Z,97415.30
2018-10-01T15:11:26.340Z,97417.62
2018-10-01T15:13:55.571Z,97421.82
2018-10-01T15:16:24.720Z,97423.03
2018-10-01T15:18:53.826Z,97426.17
2018-10-01T15:21:23.448Z,97423.86
2018-10-01T15:23:52.047Z,97429.97
2018-10-01T15:26:20.772Z,97424.10
2018-10-01T15:28:49.534Z,97428.30
2018-10-01T15:31:18.128Z,97426.63
2018-10-01T15:33:46.740Z,97427.84
2018-10-01T15:36:15.603Z,97426.45
2018-10-01T15:38:44.093Z,97424.58
2018-10-01T15:41:12.689Z,97428.11
2018-10-01T15:43:41.413Z,97426.73
2018-10-01T15:46:10.007Z,97438.70
2018-10-01T15:48:38.680Z,97436.25
2018-10-01T15:51:07.431Z,97447.06
2018-10-01T15:53:36.495Z,97456.00
2018-10-01T15:56:05.132Z,97455.47
2018-10-01T15:58:33.759Z,97453.55
2018-10-01T16:01:02.363Z,97452.47
2018-10-01T16:03:30.960Z,97458.37
2018-10-01T16:05:59.664Z,97461.93
2018-10-01T16:08:28.255Z,97469.92
2018-10-01T16:10:56.876Z,97477.57
2018-10-01T16:13:25.844Z,97483.98
2018-10-01T16:15:55.272Z,97482.19
2018-10-01T16:18:24.600Z,97480.48
2018-10-01T16:20:53.843Z,97486.48
2018-10-01T16:23:22.545Z,97487.36
2018-10-01T16:25:51.206Z,97486.39
2018-10-01T16:28:19.984Z,97477.36
2018-10-01T16:30:48.831Z,97479.34
2018-10-01T16:33:18.004Z,97480.73
2018-10-01T16:35:47.183Z,97482.27
2018-10-01T16:38:16.504Z,97489.81
2018-10-01T16:40:46.256Z,97484.98
2018-10-01T16:43:15.101Z,97493.81
2018-10-01T16:45:43.903Z,97497.31
2018-10-01T16:48:12.636Z,97497.39
2018-10-01T16:50:41.390Z,97495.86
2018-10-01T16:53:10.988Z,97501.21
2018-10-01T16:55:39.956Z,97494.98
2018-10-01T16:58:08.630Z,97495.16
2018-10-01T17:00:37.271Z,97506.30
2018-10-01T17:03:06.015Z,97509.20
2018-10-01T17:05:34.608Z,97508.14
2018-10-01T17:08:03.235Z,97512.57
2018-10-01T17:10:32.433Z,97523.19
2018-10-01T17:13:01.183Z,97537.64
2018-10-01T17:15:29.842Z,97552.09
2018-10-01T17:17:58.816Z,97563.37
2018-10-01T17:20:27.911Z,97568.58
2018-10-01T17:22:56.515Z,97570.82
2018-10-01T17:25:25.369Z,97577.33
2018-10-01T17:27:54.076Z,97571.61
2018-10-01T17:30:22.782Z,97564.39
2018-10-01T17:32:51.777Z,97567.61
2018-10-01T17:35:20.566Z,97576.10
2018-10-01T17:37:49.203Z,97584.95
2018-10-01T17:40:17.872Z,97585.82
2018-10-01T17:42:46.503Z,97594.03
2018-10-01T17:45:15.152Z,97596.14
2018-10-01T17:47:43.947Z,97598.28
2018-10-01T17:50:13.647Z,97603.09
2018-10-01T17:52:42.349Z,97605.15
2018-10-01T17:55:11.116Z,97619.48
2018-10-01T17:57:39.716Z,97619.92
2018-10-01T18:00:08.941Z,97624.80
2018-10-01T18:02:37.576Z,97628.28
2018-10-01T18:05:06.733Z,97627.23
2018-10-01T18:07:35.348Z,97636.43
2018-10-01T18:10:04.432Z,97646.47
2018-10-01T18:12:33.038Z,97652.21
2018-10-01T18:15:01.634Z,97653.87
2018-10-01T18:17:30.432Z,97653.81
2018-10-01T18:19:59.012Z,97656.86
2018-10-01T18:22:27.583Z,97658.12
2018-10-01T18:24:57.364Z,97668.53
2018-10-01T18:27:27.379Z,97671.36
2018-10-01T18:29:58.459Z,97674.73
2018-10-01T18:32:28.076Z,97677.59
2018-10-01T18:34:57.840Z,97678.94
2018-10-01T18:37:28.081Z,97681.48
2018-10-01T18:39:57.155Z,97686.99
2018-10-01T18:42:25.814Z,97684.37
2018-10-01T18:44:54.503Z,97693.45
2018-10-01T18:47:23.148Z,97694.55
2018-10-01T18:49:51.808Z,97701.06
2018-10-01T18:52:20.396Z,97694.20
2018-10-01T18:54:49.512Z,97691.37
2018-10-01T18:57:19.323Z,97700.14
2018-10-01T18:59:49.469Z,97704.13
2018-10-01T19:02:18.856Z,97699.59
2018-10-01T19:04:49.866Z,97710.88
2018-10-01T19:07:20.012Z,97710.05
2018-10-01T19:09:51.003Z,97711.18
2018-10-01T19:12:20.184Z,97716.48
2018-10-01T19:14:50.018Z,97718.19
2018-10-01T19:17:20.036Z,97719.69
2018-10-01T19:19:50.838Z,97719.45
2018-10-01T19:22:20.864Z,97716.08
2018-10-01T19:24:51.498Z,97723.59
2018-10-01T19:27:23.084Z,97724.35
2018-10-01T19:29:52.451Z,97725.41
2018-10-01T19:32:22.076Z,97731.33
2018-10-01T19:34:53.716Z,97739.67
2018-10-01T19:37:22.661Z,97734.05
2018-10-01T19:39:53.412Z,97742.59
2018-10-01T19:42:22.096Z,97749.23
2018-10-01T19:44:51.014Z,97748.39
2018-10-01T19:47:20.713Z,97757.28
2018-10-01T19:49:49.994Z,97755.64
2018-10-01T19:52:19.364Z,97757.82
2018-10-01T19:54:48.796Z,97756.62
2018-10-01T19:57:17.835Z,97756.95
2018-10-01T19:59:46.736Z,97767.00
2018-10-01T20:02:15.700Z,97765.33
2018-10-01T20:04:44.309Z,97771.78
2018-10-01T20:07:13.231Z,97771.41
2018-10-01T20:09:45.256Z,97783.37
2018-10-01T20:12:15.573Z,97780.50
2018-10-01T20:14:44.922Z,97777.13
2018-10-01T20:17:13.918Z,97780.20
2018-10-01T20:19:43.771Z,97779.73
2018-10-01T20:22:14.189Z,97789.83
2018-10-01T20:24:42.943Z,97785.45
2018-10-01T20:27:11.584Z,97800.44
2018-10-01T20:29:40.326Z,97788.45
2018-10-01T20:32:08.813Z,97789.69
2018-10-01T20:34:37.460Z,97783.28
2018-10-01T20:37:06.315Z,97779.11
2018-10-01T20:39:34.919Z,97780.05
2018-10-01T20:42:03.963Z,97787.69
2018-10-01T20:44:32.604Z,97789.13
2018-10-01T20:47:01.264Z,97787.39
2018-10-01T20:49:29.848Z,97786.45
2018-10-01T20:51:58.600Z,97792.83
2018-10-01T20:54:27.172Z,97800.17
2018-10-01T20:56:56.152Z,97799.74
2018-10-01T20:59:25.250Z,97801.41
2018-10-01T21:01:53.906Z,97804.75
2018-10-01T21:04:22.476Z,97800.95
2018-10-01T21:06:51.208Z,97803.25
2018-10-01T21:09:19.856Z,97802.34
2018-10-01T21:11:48.555Z,97803.52
2018-10-01T21:14:17.465Z,97806.02
2018-10-01T21:16:46.049Z,97812.30
2018-10-01T21:19:14.648Z,97810.98
2018-10-01T21:21:44.672Z,97811.13
2018-10-01T21:24:13.236Z,97816.30
2018-10-01T21:26:42.608Z,97821.98
2018-10-01T21:29:11.944Z,97818.48
2018-10-01T21:31:40.917Z,97822.72
2018-10-01T21:34:09.557Z,97825.22
2018-10-01T21:36:38.331Z,97831.59
2018-10-01T21:39:09.244Z,97822.28
2018-10-01T21:41:37.849Z,97828.19
2018-10-01T21:44:06.486Z,97826.98
2018-10-01T21:46:35.146Z,97833.23
2018-10-01T21:49:03.879Z,97839.21
2018-10-01T21:51:32.505Z,97847.66
2018-10-01T21:54:01.100Z,97843.81
2018-10-01T21:56:29.772Z,97839.18
2018-10-01T21:58:58.361Z,97832.83
2018-10-01T22:01:32.435Z,97837.91
2018-10-01T22:04:01.725Z,97843.92
2018-10-01T22:06:30.336Z,97837.08
2018-10-01T22:08:59.088Z,97838.41
2018-10-01T22:11:27.767Z,97846.69
2018-10-01T22:13:56.727Z,97832.67
2018-10-01T22:16:25.458Z,97831.36
2018-10-01T22:18:54.141Z,97834.34
2018-10-01T22:21:22.754Z,97834.23
2018-10-01T22:23:51.487Z,97825.45
2018-10-01T22:26:20.847Z,97832.97
2018-10-01T22:28:50.063Z,97830.53
2018-10-01T22:31:19.107Z,97835.27
2018-10-01T22:33:47.688Z,97829.86
2018-10-01T22:36:16.304Z,97829.63
2018-10-01T22:38:45.069Z,97835.13
2018-10-01T22:41:13.733Z,97835.04
2018-10-01T22:43:42.310Z,97827.45
2018-10-01T22:46:10.980Z,97826.52
2018-10-01T22:48:39.646Z,97823.98
2018-10-01T22:51:08.232Z,97826.16
2018-10-01T22:53:36.868Z,97819.91
2018-10-01T22:56:05.869Z,97827.72
2018-10-01T22:58:34.556Z,97826.30
2018-10-01T23:01:03.295Z,97825.88
2018-10-01T23:03:31.894Z,97824.14
2018-10-01T23:06:00.835Z,97822.97
2018-10-01T23:08:29.908Z,97823.43
2018-10-01T23:10:58.618Z,97822.36
2018-10-01T23:13:27.561Z,97825.33
2018-10-01T23:15:56.371Z,97830.53
2018-10-01T23:18:24.972Z,97828.48
2018-10-01T23:20:53.676Z,97831.45
2018-10-01T23:23:22.328Z,97835.69
2018-10-01T23:25:50.912Z,97834.77
2018-10-01T23:28:19.512Z,97836.06
2018-10-01T23:30:48.225Z,97837.48
2018-10-01T23:33:16.819Z,97845.93
2018-10-01T23:35:45.443Z,97842.58
2018-10-01T23:38:14.179Z,97848.11
2018-10-01T23:40:43.252Z,97849.39
2018-10-01T23:43:12.488Z,97847.23
2018-10-01T23:45:41.224Z,97841.50
2018-10-01T23:48:09.796Z,97839.71
2018-10-01T23:50:38.372Z,97837.15
2018-10-01T23:53:07.038Z,97837.61
2018-10-01T23:55:35.620Z,97840.29
2018-10-01T23:58:04.271Z,97838.45
